Beloit, KS (67420)

5:53 PM CST on February 07, 2016 (GMT -0600)
Kansas | | Change Station
CLOSE
Current Station
Personal Weather Station
Location: Beloit, KS
Elevation: 1404 ft
Nearby Weather Stations

Elev 1404 ft 39.46 °N, 98.10 °W | Updated 6 seconds ago

Clear
Clear
41.8 °F
Feels Like 37 °F
N
7.5
Wind Variable Wind from West
Gusts 11.0 mph

Today
High -- | Low -- °F
--% Chance of Precip.
Yesterday
High -- | Low -- °F
Precip. -- in
Pressure 30.12 in
Visibility 10.0 miles
Clouds Few 7500 ft
Windchill 37 °F
Dew Point 26 °F
Humidity 50%
Rainfall 0.00 in
Snow Depth Not available.
7:34 AM 5:59 PM
Waning Crescent, 1% visible
METAR KCNK 072255Z AUTO 30019G30KT 10SM FEW075 07/M04 A3009 RMK AO2 PK WND 29034/2201 SLP197 T00671044 $
Pressure 30.12 in
Visibility 10.0 miles
Clouds Few 7500 ft
Windchill 37 °F
Dew Point 26 °F
Humidity 50%
Rainfall 0.00 in
Snow Depth Not available.
7:34 AM 5:59 PM
Waning Crescent, 1% visible
METAR KCNK 072255Z AUTO 30019G30KT 10SM FEW075 07/M04 A3009 RMK AO2 PK WND 29034/2201 SLP197 T00671044 $

10-Day Weather Forecast

Almanac

Astronomy

Feb. 07, 2016 Rise Set
Actual Time
Civil Twilight
Nautical Twilight
Astronomical Twilight
Moon
Length of Visible Light
Length of Day
Tomorrow will be .
, % of the Moon is Illuminated

Today's Extremes

State Highs State Lows

Community

WunderPhotos

Upload Photos

1,891,329 photos uploaded!

WunderBlog® & News

Nearby

Air Quality

  Air Quality AQ Index Pollutant
Not available.

Snow Depth

Station Depth Elevation

Earthquake Activity

City Distance Mag. Time & Date
Minimum magnitude displayed is 2.5.

Coastal Water Temperatures

Place Temperature

Stations

Nearby Weather Stations

Station Location Temp. Windchill Dew Point Humidity Wind Precip. Elev Updated Type
                   

Watches & Warnings

There are currently no watches in effect.